createdAt,value
2018-02-11T00:00:19.775Z,99470.81
2018-02-11T00:02:45.690Z,99470.74
2018-02-11T00:05:11.609Z,99463.39
2018-02-11T00:07:37.550Z,99464.96
2018-02-11T00:10:03.497Z,99463.17
2018-02-11T00:12:29.418Z,99467.41
2018-02-11T00:14:55.360Z,99467.00
2018-02-11T00:17:21.302Z,99470.49
2018-02-11T00:19:47.225Z,99465.92
2018-02-11T00:22:13.158Z,99460.76
2018-02-11T00:24:39.097Z,99461.50
2018-02-11T00:27:05.010Z,99455.30
2018-02-11T00:29:30.934Z,99451.95
2018-02-11T00:31:56.854Z,99451.20
2018-02-11T00:34:22.816Z,99448.73
2018-02-11T00:36:48.742Z,99451.41
2018-02-11T00:39:14.700Z,99446.20
2018-02-11T00:41:40.649Z,99448.05
2018-02-11T00:44:06.599Z,99441.00
2018-02-11T00:46:32.521Z,99441.25
2018-02-11T00:48:58.450Z,99442.09
2018-02-11T00:51:24.381Z,99434.44
2018-02-11T00:53:50.312Z,99439.42
2018-02-11T00:56:16.238Z,99436.95
2018-02-11T00:58:42.178Z,99435.79
2018-02-11T01:01:08.110Z,99436.16
2018-02-11T01:03:34.077Z,99439.14
2018-02-11T01:05:59.999Z,99434.08
2018-02-11T01:08:25.947Z,99433.50
2018-02-11T01:10:51.875Z,99430.30
2018-02-11T01:13:17.919Z,99430.90
2018-02-11T01:15:43.851Z,99423.94
2018-02-11T01:18:09.779Z,99423.61
2018-02-11T01:20:35.704Z,99417.35
2018-02-11T01:23:01.621Z,99414.37
2018-02-11T01:25:27.547Z,99408.06
2018-02-11T01:27:53.553Z,99400.74
2018-02-11T01:30:19.479Z,99404.52
2018-02-11T01:32:45.411Z,99402.75
2018-02-11T01:35:11.343Z,99411.39
2018-02-11T01:37:37.285Z,99403.34
2018-02-11T01:40:03.234Z,99396.50
2018-02-11T01:42:29.165Z,99396.11
2018-02-11T01:44:55.115Z,99394.12
2018-02-11T01:47:21.041Z,99389.59
2018-02-11T01:49:46.973Z,99393.09
2018-02-11T01:52:12.897Z,99389.01
2018-02-11T01:54:38.839Z,99383.11
2018-02-11T01:57:04.772Z,99385.09
2018-02-11T01:59:30.715Z,99383.47
2018-02-11T02:01:56.659Z,99375.89
2018-02-11T02:04:22.593Z,99372.05
2018-02-11T02:06:48.522Z,99361.98
2018-02-11T02:09:14.483Z,99366.54
2018-02-11T02:11:40.393Z,99363.35
2018-02-11T02:14:06.319Z,99362.39
2018-02-11T02:16:32.246Z,99355.20
2018-02-11T02:18:58.197Z,99348.19
2018-02-11T02:21:24.127Z,99343.09
2018-02-11T02:23:50.061Z,99332.20
2018-02-11T02:26:16.007Z,99332.50
2018-02-11T02:28:41.941Z,99323.61
2018-02-11T02:31:07.889Z,99323.23
2018-02-11T02:33:33.837Z,99318.98
2018-02-11T02:35:59.770Z,99318.34
2018-02-11T02:38:25.704Z,99307.25
2018-02-11T02:40:51.642Z,99307.77
2018-02-11T02:43:17.583Z,99308.04
2018-02-11T02:45:43.509Z,99291.02
2018-02-11T02:48:09.464Z,99287.91
2018-02-11T02:50:35.384Z,99277.87
2018-02-11T02:53:01.321Z,99267.56
2018-02-11T02:55:27.262Z,99268.36
2018-02-11T02:57:53.195Z,99253.77
2018-02-11T03:00:19.131Z,99254.03
2018-02-11T03:02:45.081Z,99250.05
2018-02-11T03:05:11.005Z,99248.67
2018-02-11T03:07:36.943Z,99239.35
2018-02-11T03:10:02.879Z,99235.77
2018-02-11T03:12:28.825Z,99233.42
2018-02-11T03:14:54.749Z,99233.74
2018-02-11T03:17:20.693Z,99236.48
2018-02-11T03:19:46.625Z,99230.93
2018-02-11T03:22:12.545Z,99228.16
2018-02-11T03:24:38.480Z,99232.05
2018-02-11T03:27:04.417Z,99229.47
2018-02-11T03:29:30.363Z,99228.41
2018-02-11T03:31:56.370Z,99224.52
2018-02-11T03:34:22.305Z,99229.38
2018-02-11T03:36:48.287Z,99221.97
2018-02-11T03:39:14.209Z,99221.70
2018-02-11T03:41:40.134Z,99215.28
2018-02-11T03:44:06.068Z,99211.69
2018-02-11T03:46:31.989Z,99207.61
2018-02-11T03:48:57.912Z,99203.61
2018-02-11T03:51:23.858Z,99210.66
2018-02-11T03:53:49.785Z,99208.14
2018-02-11T03:56:15.709Z,99204.39
2018-02-11T03:58:41.625Z,99191.82
2018-02-11T04:01:07.548Z,99197.67
2018-02-11T04:03:33.473Z,99191.17
2018-02-11T04:05:59.413Z,99191.70
2018-02-11T04:08:25.349Z,99186.74
2018-02-11T04:10:51.289Z,99189.45
2018-02-11T04:13:17.219Z,99187.41
2018-02-11T04:15:43.165Z,99193.83
2018-02-11T04:18:09.119Z,99196.95
2018-02-11T04:20:35.046Z,99193.09
2018-02-11T04:23:01.001Z,99189.11
2018-02-11T04:25:26.933Z,99187.05
2018-02-11T04:27:52.914Z,99185.98
2018-02-11T04:30:18.903Z,99189.81
2018-02-11T04:32:44.825Z,99177.82
2018-02-11T04:35:10.749Z,99178.34
2018-02-11T04:37:36.681Z,99167.77
2018-02-11T04:40:02.609Z,99168.78
2018-02-11T04:42:28.557Z,99162.69
2018-02-11T04:44:54.538Z,99151.75
2018-02-11T04:47:20.487Z,99156.97
2018-02-11T04:49:46.419Z,99151.42
2018-02-11T04:52:12.341Z,99153.83
2018-02-11T04:54:38.274Z,99152.05
2018-02-11T04:57:04.201Z,99152.95
2018-02-11T04:59:30.133Z,99150.91
2018-02-11T05:01:56.191Z,99150.20
2018-02-11T05:04:22.117Z,99149.77
2018-02-11T05:06:48.042Z,99150.45
2018-02-11T05:09:13.957Z,99150.48
2018-02-11T05:11:39.877Z,99156.38
2018-02-11T05:14:05.825Z,99150.47
2018-02-11T05:16:31.753Z,99154.75
2018-02-11T05:18:57.677Z,99154.52
2018-02-11T05:21:23.593Z,99150.81
2018-02-11T05:23:49.557Z,99144.69
2018-02-11T05:26:15.493Z,99140.22
2018-02-11T05:28:41.416Z,99136.81
2018-02-11T05:31:07.379Z,99135.56
2018-02-11T05:33:33.294Z,99138.27
2018-02-11T05:35:59.221Z,99137.08
2018-02-11T05:38:25.213Z,99135.09
2018-02-11T05:40:51.137Z,99131.20
2018-02-11T05:43:17.074Z,99127.09
2018-02-11T05:45:43.013Z,99127.44
2018-02-11T05:48:08.943Z,99122.56
2018-02-11T05:50:34.861Z,99118.63
2018-02-11T05:53:00.791Z,99127.19
2018-02-11T05:55:26.719Z,99123.73
2018-02-11T05:57:52.655Z,99121.47
2018-02-11T06:00:18.587Z,99117.94
2018-02-11T06:02:44.515Z,99118.13
2018-02-11T06:05:10.451Z,99109.06
2018-02-11T06:07:36.373Z,99103.17
2018-02-11T06:10:02.289Z,99102.97
2018-02-11T06:12:28.235Z,99095.80
2018-02-11T06:14:54.169Z,99099.53
2018-02-11T06:17:20.089Z,99091.94
2018-02-11T06:19:46.011Z,99082.48
2018-02-11T06:22:11.943Z,99080.20
2018-02-11T06:24:37.862Z,99073.91
2018-02-11T06:27:03.819Z,99064.93
2018-02-11T06:29:29.749Z,99069.13
2018-02-11T06:31:55.687Z,99060.73
2018-02-11T06:34:21.619Z,99052.19
2018-02-11T06:36:47.554Z,99053.23
2018-02-11T06:39:13.490Z,99048.41
2018-02-11T06:41:39.430Z,99046.77
2018-02-11T06:44:05.353Z,99048.30
2018-02-11T06:46:31.276Z,99043.58
2018-02-11T06:48:57.191Z,99039.20
2018-02-11T06:51:23.118Z,99034.11
2018-02-11T06:53:49.041Z,99030.92
2018-02-11T06:56:14.979Z,99026.00
2018-02-11T06:58:40.906Z,99025.98
2018-02-11T07:01:06.831Z,99022.12
2018-02-11T07:03:32.767Z,99029.27
2018-02-11T07:05:58.685Z,99020.66
2018-02-11T07:08:24.617Z,99013.52
2018-02-11T07:10:50.590Z,99013.33
2018-02-11T07:13:16.521Z,99013.60
2018-02-11T07:15:42.455Z,99011.78
2018-02-11T07:18:08.412Z,99004.50
2018-02-11T07:20:34.343Z,99009.08
2018-02-11T07:23:00.288Z,99004.95
2018-02-11T07:25:26.218Z,99014.14
2018-02-11T07:27:52.135Z,99007.84
2018-02-11T07:30:18.059Z,99009.91
2018-02-11T07:32:43.979Z,99017.83
2018-02-11T07:35:09.899Z,99013.46
2018-02-11T07:37:35.864Z,99012.97
2018-02-11T07:40:01.805Z,99009.59
2018-02-11T07:42:27.759Z,99006.23
2018-02-11T07:44:53.704Z,99013.13
2018-02-11T07:47:19.639Z,99009.74
2018-02-11T07:49:45.573Z,99013.27
2018-02-11T07:52:11.513Z,98997.40
2018-02-11T07:54:37.464Z,98996.16
2018-02-11T07:57:03.391Z,98999.83
2018-02-11T07:59:29.313Z,98987.30
2018-02-11T08:01:55.248Z,98986.50
2018-02-11T08:04:21.207Z,98984.31
2018-02-11T08:06:47.154Z,98981.11
2018-02-11T08:09:13.076Z,98978.95
2018-02-11T08:11:39.018Z,98978.11
2018-02-11T08:14:04.965Z,98973.10
2018-02-11T08:16:30.910Z,98973.10
2018-02-11T08:18:57.942Z,98967.94
2018-02-11T08:21:23.866Z,98963.40
2018-02-11T08:23:49.816Z,98961.78
2018-02-11T08:26:15.751Z,98960.94
2018-02-11T08:28:41.678Z,98953.98
2018-02-11T08:31:07.593Z,98958.33
2018-02-11T08:33:33.534Z,98956.20
2018-02-11T08:35:59.466Z,98947.69
2018-02-11T08:38:25.468Z,98947.31
2018-02-11T08:40:51.400Z,98940.21
2018-02-11T08:43:17.330Z,98948.27
2018-02-11T08:45:43.262Z,98943.55
2018-02-11T08:48:09.182Z,98932.69
2018-02-11T08:50:35.107Z,98921.91
2018-02-11T08:53:01.091Z,98925.54
2018-02-11T08:55:27.028Z,98925.73
2018-02-11T08:57:52.968Z,98919.83
2018-02-11T09:00:18.952Z,98915.94
2018-02-11T09:02:44.900Z,98909.89
2018-02-11T09:05:10.960Z,98910.73
2018-02-11T09:07:37.182Z,98899.95
2018-02-11T09:10:03.210Z,98901.14
2018-02-11T09:12:29.353Z,98894.31
2018-02-11T09:14:55.422Z,98891.00
2018-02-11T09:17:21.368Z,98883.03
2018-02-11T09:19:47.307Z,98880.16
2018-02-11T09:22:13.218Z,98878.51
2018-02-11T09:24:39.199Z,98856.41
2018-02-11T09:27:05.864Z,98862.06
2018-02-11T09:29:31.802Z,98864.30
2018-02-11T09:31:57.726Z,98863.42
2018-02-11T09:34:23.681Z,98847.80
2018-02-11T09:36:49.673Z,98854.03
2018-02-11T09:39:16.069Z,98856.71
2018-02-11T09:41:42.053Z,98851.38
2018-02-11T09:44:08.005Z,98841.83
2018-02-11T09:46:34.025Z,98839.16
2018-02-11T09:48:59.968Z,98820.77
2018-02-11T09:51:25.903Z,98815.72
2018-02-11T09:53:51.831Z,98822.53
2018-02-11T09:56:17.969Z,98818.77
2018-02-11T09:58:43.993Z,98806.61
2018-02-11T10:01:10.061Z,98805.77
2018-02-11T10:03:36.019Z,98790.20
2018-02-11T10:06:01.967Z,98807.05
2018-02-11T10:08:27.923Z,98792.45
2018-02-11T10:10:53.867Z,98794.11
2018-02-11T10:13:19.813Z,98789.87
2018-02-11T10:15:45.735Z,98777.74
2018-02-11T10:18:11.901Z,98773.63
2018-02-11T10:20:37.903Z,98763.57
2018-02-11T10:23:03.855Z,98770.21
2018-02-11T10:25:29.951Z,98761.88
2018-02-11T10:27:56.023Z,98750.62
2018-02-11T10:30:21.964Z,98751.44
2018-02-11T10:32:47.959Z,98745.14
2018-02-11T10:35:13.885Z,98747.27
2018-02-11T10:37:39.845Z,98749.20
2018-02-11T10:40:05.811Z,98735.16
2018-02-11T10:42:31.863Z,98730.16
2018-02-11T10:44:57.935Z,98724.75
2018-02-11T10:47:23.961Z,98715.53
2018-02-11T10:49:49.889Z,98706.73
2018-02-11T10:52:15.823Z,98707.58
2018-02-11T10:54:41.769Z,98695.42
2018-02-11T10:57:08.109Z,98701.70
2018-02-11T10:59:35.138Z,98694.58
2018-02-11T11:02:01.227Z,98687.41
2018-02-11T11:04:27.193Z,98678.23
2018-02-11T11:06:53.522Z,98682.05
2018-02-11T11:09:19.500Z,98675.79
2018-02-11T11:11:45.498Z,98667.85
2018-02-11T11:14:11.529Z,98659.91
2018-02-11T11:16:37.630Z,98651.56
2018-02-11T11:19:03.800Z,98624.80
2018-02-11T11:21:30.796Z,98658.25
2018-02-11T11:23:56.723Z,98648.20
2018-02-11T11:26:22.650Z,98643.60
2018-02-11T11:28:48.586Z,98633.16
2018-02-11T11:31:14.610Z,98635.25
2018-02-11T11:33:40.654Z,98639.04
2018-02-11T11:36:06.646Z,98623.14
2018-02-11T11:38:32.751Z,98620.64
2018-02-11T11:40:58.694Z,98626.91
2018-02-11T11:43:24.622Z,98626.88
2018-02-11T11:45:50.637Z,98617.27
2018-02-11T11:48:17.056Z,98613.92
2018-02-11T11:50:43.007Z,98616.88
2018-02-11T11:53:09.108Z,98607.66
2018-02-11T11:55:35.112Z,98607.25
2018-02-11T11:58:01.202Z,98597.25
2018-02-11T12:00:27.147Z,98595.09
2018-02-11T12:02:53.280Z,98583.43
2018-02-11T12:05:19.244Z,98585.91
2018-02-11T12:07:45.178Z,98585.50
2018-02-11T12:10:11.105Z,98573.80
2018-02-11T12:12:37.166Z,98572.16
2018-02-11T12:15:03.183Z,98559.19
2018-02-11T12:17:29.347Z,98558.37
2018-02-11T12:19:55.350Z,98565.03
2018-02-11T12:22:21.282Z,98559.63
2018-02-11T12:24:47.201Z,98559.21
2018-02-11T12:27:13.415Z,98559.59
2018-02-11T12:29:39.355Z,98555.78
2018-02-11T12:32:05.463Z,98564.95
2018-02-11T12:34:31.524Z,98555.39
2018-02-11T12:36:57.678Z,98544.95
2018-02-11T12:39:23.895Z,98549.88
2018-02-11T12:41:49.919Z,98559.56
2018-02-11T12:44:15.920Z,98552.48
2018-02-11T12:46:41.934Z,98545.82
2018-02-11T12:49:07.859Z,98542.90
2018-02-11T12:51:33.946Z,98541.64
2018-02-11T12:53:59.917Z,98543.28
2018-02-11T12:56:25.921Z,98536.17
2018-02-11T12:58:51.946Z,98532.80
2018-02-11T13:01:17.887Z,98533.66
2018-02-11T13:03:44.037Z,98541.16
2018-02-11T13:06:10.029Z,98538.67
2018-02-11T13:08:36.066Z,98542.81
2018-02-11T13:11:02.079Z,98542.88
2018-02-11T13:13:28.178Z,98544.13
2018-02-11T13:15:54.103Z,98542.44
2018-02-11T13:18:20.033Z,98540.33
2018-02-11T13:20:46.071Z,98546.58
2018-02-11T13:23:12.112Z,98539.07
2018-02-11T13:25:38.050Z,98536.97
2018-02-11T13:28:04.117Z,98533.20
2018-02-11T13:30:30.170Z,98547.04
2018-02-11T13:32:56.273Z,98544.13
2018-02-11T13:35:22.223Z,98535.77
2018-02-11T13:37:49.254Z,98544.55
2018-02-11T13:40:15.181Z,98549.54
2018-02-11T13:42:41.193Z,98556.66
2018-02-11T13:45:07.131Z,98558.75
2018-02-11T13:47:33.353Z,98551.61
2018-02-11T13:49:59.709Z,98553.75
2018-02-11T13:52:25.668Z,98552.06
2018-02-11T13:54:51.621Z,98552.06
2018-02-11T13:57:17.649Z,98547.44
2018-02-11T13:59:43.595Z,98550.77
2018-02-11T14:02:09.519Z,98564.06
2018-02-11T14:04:35.465Z,98543.60
2018-02-11T14:07:01.483Z,98545.74
2018-02-11T14:09:27.462Z,98551.10
2018-02-11T14:11:53.427Z,98554.83
2018-02-11T14:14:19.372Z,98549.52
2018-02-11T14:16:45.307Z,98549.02
2018-02-11T14:19:11.238Z,98555.38
2018-02-11T14:21:37.158Z,98554.09
2018-02-11T14:24:03.205Z,98552.86
2018-02-11T14:26:30.156Z,98564.55
2018-02-11T14:28:56.078Z,98554.57
2018-02-11T14:31:22.096Z,98558.76
2018-02-11T14:33:48.032Z,98560.35
2018-02-11T14:36:13.971Z,98555.39
2018-02-11T14:38:39.896Z,98562.11
2018-02-11T14:41:05.810Z,98564.17
2018-02-11T14:43:31.758Z,98559.19
2018-02-11T14:45:57.730Z,98566.30
2018-02-11T14:48:23.659Z,98562.55
2018-02-11T14:50:49.665Z,98561.72
2018-02-11T14:53:15.595Z,98562.95
2018-02-11T14:55:41.532Z,98550.83
2018-02-11T14:58:07.526Z,98551.66
2018-02-11T15:00:33.573Z,98551.23
2018-02-11T15:02:59.581Z,98483.97
2018-02-11T15:05:25.518Z,98549.16
2018-02-11T15:07:51.440Z,98542.88
2018-02-11T15:10:17.396Z,98539.96
2018-02-11T15:12:43.384Z,98537.05
2018-02-11T15:15:09.325Z,98537.83
2018-02-11T15:17:35.340Z,98537.87
2018-02-11T15:20:01.274Z,98537.86
2018-02-11T15:22:27.201Z,98537.43
2018-02-11T15:24:53.128Z,98537.85
2018-02-11T15:27:19.050Z,98532.41
2018-02-11T15:29:44.978Z,98528.50
2018-02-11T15:32:10.898Z,98539.03
2018-02-11T15:34:36.832Z,98534.45
2018-02-11T15:37:02.758Z,98536.05
2018-02-11T15:39:28.699Z,98537.30
2018-02-11T15:41:54.628Z,98536.41
2018-02-11T15:44:20.552Z,98536.39
2018-02-11T15:46:46.476Z,98528.15
2018-02-11T15:49:12.394Z,98533.86
2018-02-11T15:51:38.321Z,98542.80
2018-02-11T15:54:04.242Z,98536.80
2018-02-11T15:56:30.840Z,98538.59
2018-02-11T15:58:56.782Z,98525.75
2018-02-11T16:01:22.709Z,98531.98
2018-02-11T16:03:48.630Z,98529.91
2018-02-11T16:06:14.554Z,98527.75
2018-02-11T16:08:40.470Z,98524.82
2018-02-11T16:11:06.391Z,98524.47
2018-02-11T16:13:32.350Z,98528.07
2018-02-11T16:15:58.353Z,98526.84
2018-02-11T16:18:24.282Z,98523.34
2018-02-11T16:20:50.213Z,98525.84
2018-02-11T16:23:16.152Z,98527.38
2018-02-11T16:25:42.070Z,98525.34
2018-02-11T16:28:08.082Z,98525.08
2018-02-11T16:30:34.090Z,98527.23
2018-02-11T16:33:00.042Z,98524.23
2018-02-11T16:35:25.974Z,98528.31
2018-02-11T16:37:51.920Z,98535.01
2018-02-11T16:40:17.848Z,98535.37
2018-02-11T16:42:43.774Z,98541.76
2018-02-11T16:45:09.698Z,98538.52
2018-02-11T16:47:35.626Z,98536.08
2018-02-11T16:50:01.606Z,98529.39
2018-02-11T16:52:27.558Z,98529.95
2018-02-11T16:54:53.518Z,98530.37
2018-02-11T16:57:19.563Z,98532.47
2018-02-11T16:59:45.568Z,98541.98
2018-02-11T17:02:11.527Z,98535.45
2018-02-11T17:04:37.476Z,98539.06
2018-02-11T17:07:03.391Z,98548.36
2018-02-11T17:09:29.318Z,98548.16
2018-02-11T17:11:55.263Z,98550.63
2018-02-11T17:14:21.184Z,98539.14
2018-02-11T17:16:47.098Z,98549.58
2018-02-11T17:19:13.037Z,98562.81
2018-02-11T17:21:38.966Z,98559.95
2018-02-11T17:24:04.899Z,98552.97
2018-02-11T17:26:30.828Z,98557.38
2018-02-11T17:28:57.705Z,98563.81
2018-02-11T17:31:26.042Z,98564.80
2018-02-11T17:33:51.972Z,98567.69
2018-02-11T17:36:18.033Z,98568.77
2018-02-11T17:38:43.992Z,98562.00
2018-02-11T17:41:09.959Z,98562.11
2018-02-11T17:43:35.923Z,98556.27
2018-02-11T17:46:01.868Z,98568.36
2018-02-11T17:48:27.829Z,98573.33
2018-02-11T17:50:53.767Z,98572.52
2018-02-11T17:53:20.878Z,98568.05
2018-02-11T17:55:46.825Z,98565.69
2018-02-11T17:58:12.767Z,98567.64
2018-02-11T18:00:38.687Z,98573.11
2018-02-11T18:03:04.618Z,98576.83
2018-02-11T18:05:30.579Z,98577.67
2018-02-11T18:07:56.619Z,98571.98
2018-02-11T18:10:22.631Z,98566.17
2018-02-11T18:12:48.667Z,98567.81
2018-02-11T18:15:14.683Z,98572.05
2018-02-11T18:17:40.773Z,98575.37
2018-02-11T18:20:06.745Z,98568.69
2018-02-11T18:22:32.745Z,98559.94
2018-02-11T18:24:58.839Z,98565.72
2018-02-11T18:27:24.823Z,98563.27
2018-02-11T18:29:50.823Z,98559.30
2018-02-11T18:32:16.841Z,98560.95
2018-02-11T18:34:42.871Z,98567.30
2018-02-11T18:37:08.889Z,98568.28
2018-02-11T18:39:34.923Z,98567.42
2018-02-11T18:42:00.942Z,98573.64
2018-02-11T18:44:26.992Z,98567.78
2018-02-11T18:46:54.241Z,98567.78
2018-02-11T18:49:20.248Z,98549.95
2018-02-11T18:51:46.275Z,98559.13
2018-02-11T18:54:12.296Z,98562.05
2018-02-11T18:56:38.306Z,98552.47
2018-02-11T18:59:04.386Z,98552.05
2018-02-11T19:01:32.108Z,98552.49
2018-02-11T19:03:58.193Z,98553.76
2018-02-11T19:06:24.152Z,98562.53
2018-02-11T19:08:50.178Z,98561.67
2018-02-11T19:11:16.204Z,98564.19
2018-02-11T19:13:42.214Z,98577.16
2018-02-11T19:16:08.244Z,98580.10
2018-02-11T19:18:34.275Z,98586.31
2018-02-11T19:21:00.284Z,98572.45
2018-02-11T19:23:26.312Z,98583.74
2018-02-11T19:25:54.324Z,98577.87
2018-02-11T19:30:52.381Z,98591.34
2018-02-11T19:33:18.311Z,98585.89
2018-02-11T19:35:44.310Z,98580.90
2018-02-11T19:38:10.352Z,98581.68
2018-02-11T19:40:36.293Z,98588.77
2018-02-11T19:43:02.300Z,98589.98
2018-02-11T19:45:28.239Z,98584.12
2018-02-11T19:47:54.239Z,98597.41
2018-02-11T19:50:20.194Z,98589.52
2018-02-11T19:52:46.201Z,98596.15
2018-02-11T19:55:12.141Z,98591.59
2018-02-11T19:57:38.087Z,98590.28
2018-02-11T20:00:04.034Z,98596.58
2018-02-11T20:02:29.979Z,98596.17
2018-02-11T20:04:56.010Z,98592.95
2018-02-11T20:07:21.948Z,98597.09
2018-02-11T20:09:47.935Z,98603.37
2018-02-11T20:12:13.977Z,98614.58
2018-02-11T20:14:40.024Z,98616.66
2018-02-11T20:17:06.008Z,98622.00
2018-02-11T20:19:32.043Z,98621.19
2018-02-11T20:21:57.990Z,98624.88
2018-02-11T20:24:23.939Z,98629.06
2018-02-11T20:26:49.898Z,98627.45
2018-02-11T20:29:15.927Z,98627.89
2018-02-11T20:31:41.970Z,98629.63
2018-02-11T20:34:07.912Z,98616.65
2018-02-11T20:36:33.840Z,98629.63
2018-02-11T20:38:59.802Z,98634.26
2018-02-11T20:41:25.752Z,98634.72
2018-02-11T20:43:51.684Z,98630.94
2018-02-11T20:46:17.606Z,98627.22
2018-02-11T20:48:43.549Z,98625.48
2018-02-11T20:51:09.490Z,98630.50
2018-02-11T20:53:35.446Z,98626.80
2018-02-11T20:56:01.384Z,98637.20
2018-02-11T20:58:27.430Z,98635.94
2018-02-11T21:00:53.358Z,98638.06
2018-02-11T21:03:19.343Z,98651.02
2018-02-11T21:05:45.294Z,98643.84
2018-02-11T21:08:11.226Z,98649.71
2018-02-11T21:10:37.181Z,98651.87
2018-02-11T21:13:03.116Z,98651.87
2018-02-11T21:15:29.056Z,98650.59
2018-02-11T21:17:55.004Z,98661.00
2018-02-11T21:20:20.936Z,98657.23
2018-02-11T21:22:46.874Z,98668.48
2018-02-11T21:25:12.810Z,98673.52
2018-02-11T21:27:38.748Z,98663.04
2018-02-11T21:30:04.722Z,98678.57
2018-02-11T21:32:30.702Z,98672.26
2018-02-11T21:34:56.632Z,98677.64
2018-02-11T21:37:22.568Z,98678.08
2018-02-11T21:39:48.504Z,98676.45
2018-02-11T21:42:14.446Z,98676.08
2018-02-11T21:44:40.362Z,98676.10
2018-02-11T21:47:06.299Z,98687.73
2018-02-11T21:49:32.234Z,98686.91
2018-02-11T21:51:58.165Z,98683.56
2018-02-11T21:54:24.103Z,98696.92
2018-02-11T21:56:50.048Z,98693.97
2018-02-11T21:59:15.978Z,98688.63
2018-02-11T22:01:41.914Z,98699.48
2018-02-11T22:04:07.851Z,98708.98
2018-02-11T22:06:33.794Z,98701.92
2018-02-11T22:08:59.722Z,98711.12
2018-02-11T22:11:25.686Z,98709.86
2018-02-11T22:13:51.610Z,98706.91
2018-02-11T22:16:17.542Z,98720.66
2018-02-11T22:18:43.466Z,98722.28
2018-02-11T22:21:09.421Z,98727.34
2018-02-11T22:23:35.357Z,98728.97
2018-02-11T22:26:01.298Z,98734.39
2018-02-11T22:28:27.218Z,98741.47
2018-02-11T22:30:53.163Z,98743.58
2018-02-11T22:33:19.098Z,98744.77
2018-02-11T22:35:45.027Z,98748.52
2018-02-11T22:38:10.970Z,98754.67
2018-02-11T22:40:36.900Z,98752.50
2018-02-11T22:43:02.839Z,98756.41
2018-02-11T22:45:28.766Z,98758.08
2018-02-11T22:47:54.698Z,98768.98
2018-02-11T22:50:20.636Z,98768.84
2018-02-11T22:52:46.574Z,98770.89
2018-02-11T22:55:12.531Z,98773.05
2018-02-11T22:57:38.470Z,98771.84
2018-02-11T23:00:04.393Z,98772.55
2018-02-11T23:02:30.333Z,98780.50
2018-02-11T23:04:56.266Z,98770.27
2018-02-11T23:07:22.205Z,98776.34
2018-02-11T23:09:48.126Z,98773.84
2018-02-11T23:12:14.054Z,98765.42
2018-02-11T23:14:40.005Z,98767.87
2018-02-11T23:17:05.940Z,98774.14
2018-02-11T23:19:31.861Z,98768.28
2018-02-11T23:21:57.838Z,98776.13
2018-02-11T23:24:23.763Z,98781.13
2018-02-11T23:26:49.750Z,98773.81
2018-02-11T23:29:15.650Z,98780.61
2018-02-11T23:31:41.578Z,98781.45
2018-02-11T23:34:07.501Z,98781.73
2018-02-11T23:36:33.438Z,98787.23
2018-02-11T23:38:59.362Z,98788.22
2018-02-11T23:41:25.299Z,98780.34
2018-02-11T23:43:51.231Z,98786.52
2018-02-11T23:46:17.173Z,98790.70
2018-02-11T23:48:43.107Z,98760.30
2018-02-11T23:51:09.039Z,98787.59
2018-02-11T23:53:34.962Z,98794.34
2018-02-11T23:56:00.904Z,98797.31
2018-02-11T23:58:26.960Z,98803.23
